Time;durP1;ratioP1;P1;durP2;ratioP2;P2;SDS_P1;SDS_P2;PMS_P1;PMS_P2;Temp;Humidity;BMP_temperature;BMP_pressure;BME280_temperature;BME280_humidity;BME280_pressure;Samples;Min_cycle;Max_cycle;Signal;HPM_P1;HPM_P2
2021/09/25 00:01:20;;;;;;;24.63;17.87;;;;;;;16.93;81.41;101299.19;4993844;28;20216;-78
2021/09/25 00:03:45;;;;;;;22.20;18.17;;;;;;;16.91;81.62;101290.56;4993891;28;20696;-77
2021/09/25 00:06:11;;;;;;;23.17;18.23;;;;;;;16.92;81.51;101292.31;4993210;28;20278;-78
2021/09/25 00:08:37;;;;;;;19.83;16.33;;;;;;;16.90;81.37;101286.25;4995261;28;20180;-78
2021/09/25 00:11:03;;;;;;;19.57;15.03;;;;;;;16.91;80.75;101287.97;4995461;28;20227;-78
2021/09/25 00:13:28;;;;;;;21.03;14.27;;;;;;;16.92;80.75;101287.13;4994194;28;20535;-78
2021/09/25 00:15:54;;;;;;;20.43;15.07;;;;;;;16.94;80.64;101294.91;4995095;28;20274;-78
2021/09/25 00:18:19;;;;;;;20.63;14.77;;;;;;;16.94;80.75;101287.13;4994157;28;20211;-77
2021/09/25 00:20:44;;;;;;;19.77;14.87;;;;;;;16.90;81.22;101288.84;4994691;28;20389;-78
2021/09/25 00:23:10;;;;;;;21.53;15.63;;;;;;;16.90;80.66;101290.56;4993641;28;20188;-78
2021/09/25 00:25:35;;;;;;;18.83;14.37;;;;;;;16.88;80.97;101292.28;4993171;28;20304;-78
2021/09/25 00:28:01;;;;;;;20.83;14.83;;;;;;;16.85;80.80;101289.72;4994463;28;20199;-78
2021/09/25 00:30:27;;;;;;;18.13;14.70;;;;;;;16.87;80.85;101295.75;4994794;28;20267;-79
2021/09/25 00:32:52;;;;;;;20.97;14.63;;;;;;;16.86;81.03;101289.69;4994284;28;20212;-78
2021/09/25 00:35:19;;;;;;;16.47;14.30;;;;;;;16.86;81.04;101292.28;4994334;28;20180;-78
2021/09/25 00:37:44;;;;;;;20.30;15.03;;;;;;;16.85;81.10;101294.88;4992539;28;20681;-78
2021/09/25 00:40:12;;;;;;;18.63;14.57;;;;;;;16.83;81.13;101283.66;4992645;28;20191;-79
2021/09/25 00:42:38;;;;;;;17.77;14.40;;;;;;;16.83;80.78;101287.13;4978402;28;20215;-78
2021/09/25 00:45:06;;;;;;;22.20;15.47;;;;;;;16.80;81.14;101283.69;5025849;28;20211;-77
2021/09/25 00:47:32;;;;;;;20.80;14.00;;;;;;;16.82;80.94;101284.53;5026261;28;20207;-79
2021/09/25 00:49:57;;;;;;;15.50;12.87;;;;;;;16.82;80.97;101288.00;5009081;28;20192;-78
2021/09/25 00:52:22;;;;;;;16.23;13.00;;;;;;;16.80;80.76;101289.69;4993177;28;20211;-79
2021/09/25 00:54:49;;;;;;;18.23;14.47;;;;;;;16.79;80.69;101285.38;4992629;28;20183;-78
2021/09/25 00:57:15;;;;;;;16.33;12.10;;;;;;;16.79;80.32;101292.28;4976390;28;20196;-79
2021/09/25 00:59:42;;;;;;;13.67;11.50;;;;;;;16.80;80.56;101291.44;4993021;28;20895;-79
2021/09/25 01:02:07;;;;;;;16.07;12.27;;;;;;;16.79;80.51;101293.16;4993835;28;20303;-77
2021/09/25 01:04:33;;;;;;;14.47;10.77;;;;;;;16.78;80.34;101299.19;4990430;28;20211;-77
2021/09/25 01:06:58;;;;;;;15.17;10.33;;;;;;;16.79;80.14;101300.91;4997977;28;20600;-78
2021/09/25 01:09:24;;;;;;;14.17;9.67;;;;;;;16.77;80.43;101288.84;4994668;28;20180;-79
2021/09/25 01:11:49;;;;;;;11.63;9.67;;;;;;;16.77;80.49;101302.59;4992868;28;20204;-77
2021/09/25 01:14:15;;;;;;;16.40;8.73;;;;;;;16.76;80.26;101306.06;4993544;28;20243;-79
2021/09/25 01:16:41;;;;;;;12.30;9.63;;;;;;;16.74;80.43;101307.81;4992835;28;20192;-79
2021/09/25 01:19:07;;;;;;;12.60;8.47;;;;;;;16.72;80.74;101306.91;5010480;28;20192;-80
2021/09/25 01:21:33;;;;;;;13.47;9.00;;;;;;;16.70;80.98;101305.19;4992811;28;20215;-79
2021/09/25 01:23:58;;;;;;;13.30;8.70;;;;;;;16.68;80.74;101312.09;4993994;28;20779;-80
2021/09/25 01:26:25;;;;;;;12.40;7.83;;;;;;;16.67;81.13;101320.72;4994142;28;20188;-79
2021/09/25 01:28:52;;;;;;;11.87;8.43;;;;;;;16.67;80.81;101313.81;4993654;28;20207;-78
2021/09/25 01:31:18;;;;;;;12.40;8.07;;;;;;;16.66;80.78;101306.91;4977267;28;20902;-79
2021/09/25 01:33:48;;;;;;;10.43;7.93;;;;;;;16.64;80.74;101305.19;4977169;28;20192;-79
2021/09/25 01:36:14;;;;;;;9.57;7.73;;;;;;;16.63;80.92;101309.47;4994230;28;20303;-79
2021/09/25 01:38:42;;;;;;;9.90;7.60;;;;;;;16.61;81.10;101306.03;4992846;28;20267;-79
2021/09/25 01:41:07;;;;;;;10.50;7.23;;;;;;;16.58;81.20;101311.19;4993434;28;20303;-78
2021/09/25 01:43:33;;;;;;;11.17;7.50;;;;;;;16.61;81.16;101315.50;4992653;28;20223;-79
2021/09/25 01:45:59;;;;;;;10.43;7.50;;;;;;;16.60;81.26;101311.19;4994011;28;20273;-79
2021/09/25 01:48:24;;;;;;;10.53;7.53;;;;;;;16.58;81.33;101312.94;4976271;28;20242;-78
2021/09/25 01:50:50;;;;;;;14.00;8.10;;;;;;;16.56;81.11;101306.88;4994827;28;20596;-79
2021/09/25 01:53:17;;;;;;;12.77;9.03;;;;;;;16.58;81.26;101312.94;4992478;28;20600;-78
2021/09/25 01:55:43;;;;;;;12.13;8.97;;;;;;;16.57;81.38;101313.81;4992898;28;20176;-78
2021/09/25 01:58:09;;;;;;;12.37;8.77;;;;;;;16.52;82.05;101305.13;4993185;28;20191;-78
2021/09/25 02:00:34;;;;;;;12.23;9.03;;;;;;;16.50;82.08;101312.91;5009265;28;20199;-79
2021/09/25 02:03:02;;;;;;;12.00;10.20;;;;;;;16.49;81.90;101316.34;4994338;28;20278;-78
2021/09/25 02:05:27;;;;;;;14.30;10.33;;;;;;;16.46;82.43;101318.94;4992811;28;20700;-78
2021/09/25 02:07:53;;;;;;;12.97;10.27;;;;;;;16.45;82.51;101311.16;4976687;28;20192;-78
2021/09/25 02:10:18;;;;;;;14.53;10.43;;;;;;;16.43;82.67;101316.34;4995359;28;20217;-78
2021/09/25 02:12:45;;;;;;;16.90;10.50;;;;;;;16.42;82.79;101312.03;4997071;28;20226;-80
2021/09/25 02:15:11;;;;;;;13.80;10.60;;;;;;;16.44;82.57;101320.63;4991859;28;20188;-79
2021/09/25 02:17:37;;;;;;;12.77;10.63;;;;;;;16.43;82.98;101330.97;4990220;28;20233;-78
2021/09/25 02:20:04;;;;;;;15.07;10.60;;;;;;;16.40;83.11;101326.66;5023437;28;20199;-78
2021/09/25 02:22:29;;;;;;;17.13;11.10;;;;;;;16.42;83.68;101331.84;4990754;28;20212;-78
2021/09/25 02:24:55;;;;;;;13.67;11.03;;;;;;;16.38;83.50;101333.50;5028217;28;20211;-78
2021/09/25 02:27:20;;;;;;;14.83;12.10;;;;;;;16.38;83.72;101332.63;5028934;28;20235;-78
2021/09/25 02:29:45;;;;;;;17.90;13.27;;;;;;;16.32;84.15;101330.91;5029530;28;20225;-80
2021/09/25 02:32:11;;;;;;;17.90;13.20;;;;;;;16.32;84.29;101330.91;5012501;28;20591;-78
2021/09/25 02:34:37;;;;;;;16.20;12.93;;;;;;;16.30;84.68;101335.19;5029419;28;20226;-79
2021/09/25 02:37:05;;;;;;;21.40;14.30;;;;;;;16.29;84.90;101330.91;4979974;28;20729;-78
2021/09/25 02:39:31;;;;;;;19.87;15.03;;;;;;;16.28;84.63;101330.88;4996492;28;20234;-78
2021/09/25 02:41:56;;;;;;;20.43;15.27;;;;;;;16.25;84.91;101325.72;4998004;28;20223;-79
2021/09/25 02:44:22;;;;;;;19.10;15.90;;;;;;;16.25;84.65;101321.41;4979744;28;20293;-77
2021/09/25 02:46:48;;;;;;;20.13;16.37;;;;;;;16.25;85.35;101323.13;4996041;28;20195;-79
2021/09/25 02:49:15;;;;;;;24.40;17.97;;;;;;;16.20;85.77;101320.50;4997602;28;20183;-78
2021/09/25 02:51:41;;;;;;;24.90;17.40;;;;;;;16.18;85.97;101327.41;4996499;28;20824;-78
2021/09/25 02:54:07;;;;;;;27.73;18.93;;;;;;;16.20;85.86;101322.22;5028415;28;20195;-78
2021/09/25 02:56:32;;;;;;;25.73;19.63;;;;;;;16.19;86.15;101330.84;5028275;28;20568;-79
2021/09/25 02:58:57;;;;;;;23.67;20.00;;;;;;;16.16;86.31;101328.25;5012332;28;20188;-79
2021/09/25 03:01:25;;;;;;;23.87;18.67;;;;;;;16.17;86.40;101332.56;4995905;28;20206;-78
2021/09/25 03:03:51;;;;;;;26.40;20.40;;;;;;;16.15;86.32;101332.56;4976755;28;20197;-78
2021/09/25 03:06:16;;;;;;;25.03;19.77;;;;;;;16.14;86.10;101338.59;4976328;28;20220;-79
2021/09/25 03:08:42;;;;;;;23.60;19.27;;;;;;;16.17;86.42;101342.91;4992530;28;20188;-79
2021/09/25 03:11:07;;;;;;;27.23;20.63;;;;;;;16.17;86.45;101340.31;4992686;28;20270;-77
2021/09/25 03:13:32;;;;;;;26.97;21.37;;;;;;;16.16;86.12;101342.03;5012176;28;20196;-77
2021/09/25 03:15:58;;;;;;;25.70;20.37;;;;;;;16.18;85.92;101345.50;5009704;28;20179;-78
2021/09/25 03:18:23;;;;;;;25.20;20.83;;;;;;;16.18;86.40;101337.75;5027769;28;20610;-78
2021/09/25 03:20:49;;;;;;;24.80;21.40;;;;;;;16.18;86.53;101344.63;4996034;28;20271;-79
2021/09/25 03:23:14;;;;;;;25.80;21.00;;;;;;;16.19;86.61;101341.19;5029461;28;20239;-78
2021/09/25 03:25:39;;;;;;;28.83;22.40;;;;;;;16.19;86.34;101339.47;4995842;28;20207;-78
2021/09/25 03:28:05;;;;;;;24.67;20.23;;;;;;;16.20;86.45;101341.19;4996117;28;20193;-78
2021/09/25 03:30:30;;;;;;;28.53;22.23;;;;;;;16.19;86.54;101341.19;4997292;28;20560;-79
2021/09/25 03:32:55;;;;;;;28.00;23.37;;;;;;;16.20;86.49;101338.59;4996371;28;20223;-78
2021/09/25 03:35:21;;;;;;;34.87;24.13;;;;;;;16.20;85.75;101337.72;4997319;28;20672;-80
2021/09/25 03:37:46;;;;;;;27.60;22.83;;;;;;;16.22;86.49;101343.78;5011332;28;20192;-78
2021/09/25 03:40:12;;;;;;;26.60;22.30;;;;;;;16.21;86.36;101340.31;5027821;28;20603;-78
2021/09/25 03:42:37;;;;;;;29.70;22.43;;;;;;;16.23;86.75;101342.94;4996150;28;20727;-78
2021/09/25 03:45:05;;;;;;;25.37;22.03;;;;;;;16.23;86.61;101355.84;5027402;28;20350;-79
2021/09/25 03:47:30;;;;;;;25.70;21.47;;;;;;;16.24;87.11;101352.41;4994942;28;20188;-79
2021/09/25 03:49:56;;;;;;;27.13;22.43;;;;;;;16.24;85.93;101354.97;4979098;28;20621;-77
2021/09/25 03:52:21;;;;;;;26.00;21.73;;;;;;;16.23;86.69;101355.84;4979228;28;20219;-78
2021/09/25 03:54:46;;;;;;;28.80;22.20;;;;;;;16.24;86.83;101345.53;4993655;28;20184;-78
2021/09/25 03:57:12;;;;;;;26.67;22.77;;;;;;;16.21;86.87;101355.84;4978754;28;20202;-80
2021/09/25 03:59:37;;;;;;;25.53;20.60;;;;;;;16.23;86.25;101351.56;4994430;28;20188;-78
2021/09/25 04:02:02;;;;;;;26.83;21.83;;;;;;;16.23;86.49;101351.56;4994669;28;20297;-79
2021/09/25 04:04:28;;;;;;;27.13;21.70;;;;;;;16.23;86.66;101348.09;4993692;28;20262;-78
2021/09/25 04:06:53;;;;;;;25.90;21.33;;;;;;;16.22;86.69;101348.97;5017107;28;20183;-79
2021/09/25 04:09:19;;;;;;;25.23;20.40;;;;;;;16.23;86.39;101341.22;4992110;28;20196;-78
2021/09/25 04:11:48;;;;;;;25.00;21.37;;;;;;;16.25;86.56;101343.81;4991607;28;20243;-77
2021/09/25 04:14:19;;;;;;;24.97;21.00;;;;;;;16.25;86.87;101343.81;4975865;28;20688;-78
2021/09/25 04:16:46;;;;;;;24.13;20.70;;;;;;;16.26;86.76;101353.28;4996553;28;20202;-77
2021/09/25 04:19:11;;;;;;;24.03;20.50;;;;;;;16.27;86.66;101349.84;4970807;28;20239;-79
2021/09/25 04:21:37;;;;;;;24.50;20.83;;;;;;;16.27;86.52;101352.44;4991886;28;20576;-78
2021/09/25 04:24:02;;;;;;;26.00;21.40;;;;;;;16.25;86.63;101352.41;4993863;28;20250;-77
2021/09/25 04:26:27;;;;;;;22.47;20.13;;;;;;;16.27;86.66;101349.84;4976040;28;20191;-79
2021/09/25 04:28:53;;;;;;;22.27;19.43;;;;;;;16.29;86.55;101348.13;4974702;28;20200;-78
2021/09/25 04:31:18;;;;;;;24.63;20.23;;;;;;;16.26;86.51;101355.88;4974361;28;20233;-79
2021/09/25 04:33:43;;;;;;;23.83;20.77;;;;;;;16.27;87.01;101350.72;4962093;28;20410;-78
2021/09/25 04:36:09;;;;;;;23.17;19.97;;;;;;;16.27;86.65;101353.31;4958345;28;20202;-78
2021/09/25 04:38:34;;;;;;;24.73;20.03;;;;;;;16.27;86.88;101357.59;4976120;28;20669;-80
2021/09/25 04:41:00;;;;;;;22.50;19.50;;;;;;;16.28;87.25;101357.59;4974511;28;20195;-77
2021/09/25 04:43:25;;;;;;;26.03;21.53;;;;;;;16.24;87.76;101353.28;4973783;28;20204;-78
2021/09/25 04:45:50;;;;;;;28.30;22.93;;;;;;;16.23;87.54;101356.72;4986311;28;20222;-78
2021/09/25 04:48:16;;;;;;;26.70;22.77;;;;;;;16.24;87.93;101360.16;4994325;28;20196;-79
2021/09/25 04:50:43;;;;;;;28.13;23.77;;;;;;;16.22;87.83;101359.28;4994438;28;20184;-78
2021/09/25 04:53:12;;;;;;;28.83;24.20;;;;;;;16.21;87.84;101360.16;4987306;28;20200;-79
2021/09/25 04:55:38;;;;;;;27.67;23.63;;;;;;;16.20;87.71;101367.03;4956293;29;20220;-79
2021/09/25 04:58:05;;;;;;;29.10;24.00;;;;;;;16.18;88.23;101373.06;4971976;28;20244;-78
2021/09/25 05:00:30;;;;;;;30.77;24.80;;;;;;;16.18;88.21;101365.31;4955675;28;20819;-78
2021/09/25 05:02:55;;;;;;;30.70;25.50;;;;;;;16.16;88.60;101379.94;4956271;29;20205;-79
2021/09/25 05:05:21;;;;;;;29.90;24.77;;;;;;;16.16;88.04;101365.28;4956432;29;20572;-79
2021/09/25 05:07:46;;;;;;;28.20;25.20;;;;;;;16.18;88.17;101371.34;4956484;29;20248;-79
2021/09/25 05:10:12;;;;;;;32.73;24.80;;;;;;;16.19;88.74;101380.81;4956694;28;20208;-79
2021/09/25 05:12:37;;;;;;;30.87;25.37;;;;;;;16.20;88.02;101377.38;4972280;28;20216;-78
2021/09/25 05:15:03;;;;;;;29.40;25.03;;;;;;;16.21;88.20;101379.09;4955530;28;20189;-78
2021/09/25 05:17:28;;;;;;;29.77;23.97;;;;;;;16.22;87.98;101379.97;4939553;29;20185;-78
2021/09/25 05:19:53;;;;;;;28.30;25.23;;;;;;;16.24;88.01;101388.59;4939507;29;20201;-79
2021/09/25 05:22:19;;;;;;;30.07;25.10;;;;;;;16.22;87.83;101392.91;4939808;29;20288;-78
2021/09/25 05:24:45;;;;;;;32.30;26.23;;;;;;;16.24;87.86;101392.03;4961409;28;20216;-79
2021/09/25 05:27:12;;;;;;;31.77;25.33;;;;;;;16.25;88.19;101398.09;4941142;29;20201;-78
2021/09/25 05:29:38;;;;;;;34.13;25.73;;;;;;;16.26;87.93;101397.22;4954953;29;20193;-78
2021/09/25 05:32:04;;;;;;;30.60;25.40;;;;;;;16.26;88.05;101397.22;4954440;29;20280;-78
2021/09/25 05:34:29;;;;;;;32.27;26.20;;;;;;;16.25;88.11;101395.50;4973658;28;20243;-78
2021/09/25 05:36:56;;;;;;;37.00;29.00;;;;;;;16.25;88.16;101400.69;4988228;28;20680;-79
2021/09/25 05:39:22;;;;;;;34.53;27.73;;;;;;;16.26;88.27;101397.22;4995994;28;20188;-79
2021/09/25 05:41:47;;;;;;;36.20;28.57;;;;;;;16.30;88.05;101398.97;4989123;28;20216;-78
2021/09/25 05:44:12;;;;;;;40.03;28.60;;;;;;;16.32;88.08;101397.25;4967147;28;20202;-79
2021/09/25 05:46:38;;;;;;;35.87;28.47;;;;;;;16.32;88.02;101398.13;4974702;28;20176;-78
2021/09/25 05:49:03;;;;;;;33.70;27.10;;;;;;;16.34;88.15;101411.06;4959795;28;20193;-78
2021/09/25 05:51:28;;;;;;;37.87;28.23;;;;;;;16.35;87.61;101415.38;4990972;28;20215;-79
2021/09/25 05:53:54;;;;;;;39.10;29.50;;;;;;;16.34;87.61;101411.06;4993418;28;20218;-79
2021/09/25 05:56:19;;;;;;;38.90;28.80;;;;;;;16.36;87.84;101419.69;4994066;28;20184;-77
2021/09/25 05:58:45;;;;;;;39.83;30.53;;;;;;;16.35;87.89;101420.53;4998100;28;20192;-77
2021/09/25 06:01:10;;;;;;;37.90;30.23;;;;;;;16.36;87.67;101422.25;4993610;28;20271;-77
2021/09/25 06:03:35;;;;;;;42.07;31.03;;;;;;;16.37;87.75;101429.16;4956204;28;20203;-76
2021/09/25 06:06:01;;;;;;;38.03;29.40;;;;;;;16.36;87.69;101425.72;4940183;29;20602;-78
2021/09/25 06:08:26;;;;;;;40.73;31.13;;;;;;;16.36;87.91;101424.84;4959134;28;20648;-77
2021/09/25 06:10:51;;;;;;;41.63;29.63;;;;;;;16.40;87.73;101413.69;4960563;28;20195;-77
2021/09/25 06:13:17;;;;;;;42.10;30.20;;;;;;;16.43;87.85;101412.00;4960917;28;20192;-77
2021/09/25 06:15:44;;;;;;;39.07;29.23;;;;;;;16.44;87.45;101410.28;4978903;28;20218;-76
2021/09/25 06:18:10;;;;;;;42.33;31.27;;;;;;;16.46;87.62;101411.13;4977915;28;20606;-78
2021/09/25 06:20:36;;;;;;;43.03;30.20;;;;;;;16.48;87.54;101409.44;4997787;28;20200;-77
2021/09/25 06:23:02;;;;;;;40.10;27.67;;;;;;;16.47;87.34;101413.72;4996989;28;20210;-77
2021/09/25 06:25:27;;;;;;;42.63;29.67;;;;;;;16.53;87.24;101429.25;4998164;28;20633;-77
2021/09/25 06:27:53;;;;;;;38.67;28.23;;;;;;;16.50;87.33;101442.19;4997998;28;20191;-77
2021/09/25 06:30:18;;;;;;;35.80;27.03;;;;;;;16.52;87.16;101443.06;4999235;28;20196;-78
2021/09/25 06:32:45;;;;;;;41.70;28.37;;;;;;;16.55;86.59;101447.38;4968275;28;20271;-78
2021/09/25 06:35:15;;;;;;;40.33;27.93;;;;;;;16.50;86.94;101437.03;4976446;28;20678;-78
2021/09/25 06:37:41;;;;;;;39.67;27.83;;;;;;;16.52;87.05;101443.06;4993394;28;20208;-78
2021/09/25 06:40:10;;;;;;;36.83;27.23;;;;;;;16.57;87.03;101431.00;4981774;28;20207;-77
2021/09/25 06:42:37;;;;;;;39.87;28.10;;;;;;;16.67;86.69;101432.78;4997726;28;20212;-78
2021/09/25 06:45:03;;;;;;;38.00;27.83;;;;;;;16.78;85.82;101436.28;4994360;28;20216;-77
2021/09/25 06:47:29;;;;;;;36.80;27.00;;;;;;;16.84;85.98;101430.25;4989104;28;20187;-76
2021/09/25 06:49:55;;;;;;;40.73;27.53;;;;;;;16.97;85.55;101426.84;4979878;28;20192;-77
2021/09/25 06:52:20;;;;;;;39.17;25.67;;;;;;;17.20;84.74;101430.34;4974306;28;20276;-78
2021/09/25 06:54:45;;;;;;;37.10;26.27;;;;;;;17.14;84.72;101441.56;4961461;28;20193;-77
2021/09/25 06:57:11;;;;;;;36.37;25.33;;;;;;;17.04;85.02;101447.56;4964467;28;20232;-77
2021/09/25 06:59:37;;;;;;;36.00;24.80;;;;;;;17.07;84.87;101451.88;4998721;28;20200;-77
2021/09/25 07:02:03;;;;;;;32.00;23.83;;;;;;;17.08;84.93;101451.06;4994299;28;20227;-78
2021/09/25 07:04:28;;;;;;;36.57;26.07;;;;;;;17.06;84.61;101453.63;5010527;28;20670;-78
2021/09/25 07:06:54;;;;;;;34.57;25.80;;;;;;;17.07;84.86;101463.13;4978049;28;20733;-77
2021/09/25 07:09:19;;;;;;;34.33;24.53;;;;;;;17.11;84.50;101461.41;4971813;28;20332;-78
2021/09/25 07:11:44;;;;;;;31.27;23.27;;;;;;;17.17;84.43;101461.44;5015904;28;20270;-77
2021/09/25 07:14:10;;;;;;;32.73;25.37;;;;;;;17.16;84.63;101460.56;4958457;28;20196;-77
2021/09/25 07:16:36;;;;;;;33.00;24.20;;;;;;;17.19;84.38;101464.88;4960035;28;20185;-77
2021/09/25 07:19:04;;;;;;;31.47;23.33;;;;;;;17.33;83.93;101469.22;4959375;28;20193;-78
2021/09/25 07:21:30;;;;;;;31.90;23.27;;;;;;;17.36;83.92;101473.56;4958471;29;20215;-77
2021/09/25 07:23:55;;;;;;;31.20;22.17;;;;;;;17.29;84.31;101477.84;4958114;28;20276;-77
2021/09/25 07:26:20;;;;;;;31.47;22.90;;;;;;;17.26;84.03;101480.41;4991939;28;20247;-78
2021/09/25 07:28:46;;;;;;;31.00;22.17;;;;;;;17.30;84.00;101473.50;4989467;28;20193;-78
2021/09/25 07:31:11;;;;;;;28.80;22.23;;;;;;;17.27;84.08;101476.13;4956623;29;20249;-78
2021/09/25 07:33:37;;;;;;;28.83;21.93;;;;;;;17.30;83.86;101482.16;4958200;28;20669;-77
2021/09/25 07:36:03;;;;;;;30.07;22.57;;;;;;;17.26;83.98;101489.91;4959123;29;20185;-77
2021/09/25 07:38:28;;;;;;;29.60;21.53;;;;;;;17.31;84.03;101483.88;4968399;28;20240;-76
2021/09/25 07:40:56;;;;;;;28.30;22.10;;;;;;;17.32;83.94;101479.59;4976332;28;20207;-78
2021/09/25 07:43:22;;;;;;;30.20;21.60;;;;;;;17.37;83.71;101481.28;4983633;28;20197;-78
2021/09/25 07:45:47;;;;;;;28.63;22.70;;;;;;;17.40;83.81;101486.53;4995194;28;20215;-78
2021/09/25 07:48:13;;;;;;;28.93;22.00;;;;;;;17.41;83.67;101490.84;4996653;28;20196;-78
2021/09/25 07:50:38;;;;;;;27.30;22.00;;;;;;;17.44;83.54;101498.63;4996026;28;20192;-77
2021/09/25 07:53:03;;;;;;;25.77;21.43;;;;;;;17.40;83.75;101490.88;4998926;28;20207;-78
2021/09/25 07:55:29;;;;;;;27.00;21.63;;;;;;;17.46;83.69;101507.25;4994172;28;20208;-77
2021/09/25 07:57:54;;;;;;;31.00;23.17;;;;;;;17.46;83.29;101507.25;4972799;28;20195;-76
2021/09/25 08:00:20;;;;;;;28.57;21.90;;;;;;;17.47;83.90;101511.59;4973969;28;20188;-76
2021/09/25 08:02:46;;;;;;;32.00;23.37;;;;;;;17.45;83.83;101507.28;4974188;28;20228;-78
2021/09/25 08:05:12;;;;;;;28.47;22.03;;;;;;;17.40;83.86;101509.84;4973359;28;20435;-77
2021/09/25 08:07:38;;;;;;;33.57;21.97;;;;;;;17.46;84.02;101509.84;4974828;28;20185;-77
2021/09/25 08:10:06;;;;;;;33.20;22.90;;;;;;;17.52;83.81;101522.81;4976147;28;20192;-77
2021/09/25 08:12:31;;;;;;;28.17;22.47;;;;;;;17.58;83.84;101527.13;4990004;28;20264;-76
2021/09/25 08:14:57;;;;;;;28.53;21.60;;;;;;;17.65;83.83;101524.56;4973798;28;20681;-78
2021/09/25 08:17:23;;;;;;;26.87;21.57;;;;;;;17.70;83.51;101528.03;4974128;28;20185;-77
2021/09/25 08:19:48;;;;;;;28.13;21.30;;;;;;;17.68;82.93;101529.75;4961768;28;20579;-77
2021/09/25 08:22:14;;;;;;;26.50;21.60;;;;;;;17.67;83.49;101537.50;4953837;28;20243;-77
2021/09/25 08:24:40;;;;;;;29.60;20.87;;;;;;;17.76;82.97;101532.34;4974843;28;20216;-78
2021/09/25 08:27:05;;;;;;;27.00;19.70;;;;;;;17.82;83.29;101525.44;4966190;28;20192;-78
2021/09/25 08:29:31;;;;;;;29.00;21.37;;;;;;;17.84;83.12;101528.91;4975991;28;20744;-77
2021/09/25 08:31:56;;;;;;;28.00;21.47;;;;;;;17.83;82.70;101539.28;4956730;28;20227;-78
2021/09/25 08:34:21;;;;;;;30.27;23.33;;;;;;;17.78;83.13;101539.25;4972026;28;20215;-78
2021/09/25 08:36:47;;;;;;;30.57;21.90;;;;;;;17.82;83.28;101537.56;4971502;28;20232;-79
2021/09/25 08:39:12;;;;;;;34.63;24.10;;;;;;;17.81;82.96;101540.97;4995344;28;20200;-78
2021/09/25 08:41:39;;;;;;;30.87;24.87;;;;;;;17.82;83.26;101541.00;4987495;28;20220;-79
2021/09/25 08:44:05;;;;;;;32.47;25.10;;;;;;;17.87;83.12;101547.03;4947329;28;20712;-78
2021/09/25 08:46:34;;;;;;;31.17;26.67;;;;;;;17.96;82.89;101549.63;4969370;28;20221;-78
2021/09/25 08:48:59;;;;;;;33.77;26.70;;;;;;;17.97;82.77;101551.34;4959064;28;20180;-78
2021/09/25 08:51:25;;;;;;;33.63;26.30;;;;;;;17.97;82.52;101556.53;4968103;28;20337;-79
2021/09/25 08:53:50;;;;;;;34.53;28.13;;;;;;;17.98;82.63;101560.88;4971864;28;20177;-78
2021/09/25 08:56:16;;;;;;;35.50;25.93;;;;;;;18.02;83.11;101570.41;4973436;28;20200;-78
2021/09/25 08:58:41;;;;;;;34.37;26.17;;;;;;;17.99;82.75;101562.63;4987494;28;20188;-79
2021/09/25 09:01:07;;;;;;;34.10;27.73;;;;;;;18.02;82.69;101572.13;4956448;28;20216;-79
2021/09/25 09:03:34;;;;;;;33.30;27.10;;;;;;;18.08;82.49;101567.81;4972081;28;20185;-78
2021/09/25 09:06:18;;;;;;;35.03;27.37;;;;;;;18.25;81.93;101562.63;4956374;29;20292;-79
2021/09/25 09:08:52;;;;;;;32.07;26.90;;;;;;;18.25;81.88;101568.69;4957190;28;20651;-78
2021/09/25 09:11:20;;;;;;;34.83;26.73;;;;;;;18.30;81.31;101568.66;4997353;28;20208;-78
2021/09/25 09:13:48;;;;;;;28.93;25.60;;;;;;;18.40;81.13;101567.81;4990004;28;20207;-78
2021/09/25 09:16:14;;;;;;;31.00;25.10;;;;;;;18.47;81.83;101565.22;4963703;28;20189;-79
2021/09/25 09:18:42;;;;;;;28.17;24.77;;;;;;;18.39;81.36;101566.09;4975534;28;20572;-77
2021/09/25 09:21:11;;;;;;;31.57;26.03;;;;;;;18.49;81.22;101566.09;4958238;28;20629;-78
2021/09/25 09:23:43;;;;;;;31.17;24.70;;;;;;;18.65;80.46;101572.97;4970909;28;20311;-78
2021/09/25 09:26:10;;;;;;;32.07;25.13;;;;;;;18.85;79.95;101570.34;4966751;28;20226;-79
2021/09/25 09:28:36;;;;;;;29.33;24.53;;;;;;;18.79;80.34;101572.97;4971374;28;20812;-78
2021/09/25 09:31:04;;;;;;;34.40;25.97;;;;;;;18.60;80.27;101566.09;4970326;28;20192;-78
2021/09/25 09:33:30;;;;;;;28.83;24.00;;;;;;;18.82;79.79;101575.53;4970076;28;20741;-78
2021/09/25 09:36:30;;;;;;;32.37;24.70;;;;;;;18.81;80.03;101573.81;4970289;28;20263;-78
2021/09/25 09:39:14;;;;;;;31.73;24.77;;;;;;;18.87;79.57;101574.66;4971264;28;20203;-78
2021/09/25 09:41:51;;;;;;;29.93;24.93;;;;;;;18.84;79.85;101582.44;4971917;28;20215;-78
2021/09/25 09:44:22;;;;;;;31.20;24.77;;;;;;;18.91;79.65;101572.91;5003262;28;20241;-78
2021/09/25 09:46:54;;;;;;;27.27;23.73;;;;;;;19.00;79.63;101578.09;4994615;28;20207;-78
2021/09/25 09:49:25;;;;;;;29.63;24.50;;;;;;;18.96;79.69;101577.25;4970569;28;20264;-77
2021/09/25 09:51:52;;;;;;;30.27;24.17;;;;;;;18.93;79.78;101579.84;4967175;28;20211;-78
2021/09/25 09:54:26;;;;;;;34.17;24.73;;;;;;;18.87;79.47;101585.03;4970463;28;20197;-78
2021/09/25 09:56:54;;;;;;;33.13;26.60;;;;;;;18.88;80.24;101580.72;4971798;28;20191;-78
2021/09/25 09:59:20;;;;;;;30.30;25.20;;;;;;;18.85;79.92;101578.13;4953811;28;20651;-78
2021/09/25 10:01:45;;;;;;;32.17;25.37;;;;;;;19.00;79.45;101583.28;4971186;28;20219;-78
2021/09/25 10:04:11;;;;;;;29.03;24.93;;;;;;;19.09;79.40;101588.44;4955255;28;20189;-79
2021/09/25 10:06:37;;;;;;;30.73;25.00;;;;;;;19.32;78.91;101579.75;4955507;28;20217;-78
2021/09/25 10:09:06;;;;;;;30.03;23.60;;;;;;;19.66;77.33;101581.28;4971566;28;20193;-79
2021/09/25 10:11:32;;;;;;;27.40;21.90;;;;;;;20.09;75.91;101576.69;4960203;28;20773;-79
2021/09/25 10:13:59;;;;;;;28.60;21.90;;;;;;;20.46;74.16;101584.16;4952549;29;20267;-78
2021/09/25 10:16:25;;;;;;;26.27;20.77;;;;;;;20.27;75.10;101586.97;4965534;28;20355;-78
2021/09/25 10:18:51;;;;;;;25.13;20.70;;;;;;;20.30;74.59;101581.72;4965102;28;20184;-78
2021/09/25 10:21:17;;;;;;;22.13;19.73;;;;;;;20.23;75.09;101582.66;4971414;28;20244;-77
2021/09/25 10:24:04;;;;;;;25.07;21.03;;;;;;;19.89;75.90;101581.13;4967006;28;20204;-78
2021/09/25 10:26:31;;;;;;;25.30;20.30;;;;;;;19.90;76.22;101586.31;4955351;28;20673;-79
2021/09/25 10:28:59;;;;;;;23.83;20.33;;;;;;;19.80;76.71;101587.25;4955771;28;20852;-79
2021/09/25 10:31:24;;;;;;;25.80;21.00;;;;;;;19.72;77.11;101589.03;4972444;28;20220;-78
2021/09/25 10:34:06;;;;;;;24.67;21.77;;;;;;;19.70;77.16;101592.50;4968853;28;20617;-79
2021/09/25 10:36:36;;;;;;;24.77;21.00;;;;;;;19.67;77.16;101588.19;4972351;28;20173;-79
2021/09/25 10:39:43;;;;;;;22.60;20.20;;;;;;;19.75;76.46;101595.94;4956596;28;20203;-79
2021/09/25 10:42:12;;;;;;;22.37;19.27;;;;;;;19.82;76.38;101593.34;4968734;28;20729;-79
2021/09/25 10:44:52;;;;;;;24.10;19.70;;;;;;;19.82;76.56;101598.53;4985820;28;20231;-78
2021/09/25 10:47:23;;;;;;;22.97;18.47;;;;;;;19.98;76.15;101589.75;4975551;28;20251;-78
2021/09/25 10:49:50;;;;;;;22.93;20.43;;;;;;;19.85;76.69;101598.50;4974794;28;20200;-79
2021/09/25 10:52:20;;;;;;;23.20;18.97;;;;;;;19.84;76.76;101603.69;4957272;28;20260;-78
2021/09/25 10:55:05;;;;;;;22.70;19.97;;;;;;;19.96;76.35;101601.03;4975902;28;20658;-77
2021/09/25 10:57:31;;;;;;;22.47;19.23;;;;;;;19.93;76.25;101606.25;4957519;28;20192;-78
2021/09/25 11:00:19;;;;;;;19.27;17.30;;;;;;;20.28;75.37;101599.97;4975716;28;20565;-77
2021/09/25 11:02:45;;;;;;;20.47;17.40;;;;;;;20.12;75.46;101606.16;4976164;28;20220;-78
2021/09/25 11:05:15;;;;;;;24.40;17.13;;;;;;;20.21;75.38;101603.47;4974656;28;20637;-78
2021/09/25 11:07:42;;;;;;;18.83;15.47;;;;;;;20.67;73.80;101599.59;4945984;28;20261;-78